createdAt,value
2022-09-22T00:02:05.846Z,101497.97
2022-09-22T00:04:39.330Z,101496.38
2022-09-22T00:07:09.300Z,101493.41
2022-09-22T00:09:48.933Z,101502.63
2022-09-22T00:12:45.795Z,101487.16
2022-09-22T00:15:18.401Z,101496.16
2022-09-22T00:17:55.986Z,101500.44
2022-09-22T00:21:02.641Z,101501.47
2022-09-22T00:23:33.176Z,101492.78
2022-09-22T00:26:10.323Z,101494.00
2022-09-22T00:29:10.666Z,101497.19
2022-09-22T00:31:47.689Z,101493.81
2022-09-22T00:34:30.072Z,101490.78
2022-09-22T00:40:41.978Z,101485.41
2022-09-22T00:48:03.005Z,101483.25
2022-09-22T00:50:37.541Z,101476.31
2022-09-22T00:53:22.169Z,101472.81
2022-09-22T00:56:28.576Z,101473.19
2022-09-22T00:59:05.200Z,101480.19
2022-09-22T01:01:43.015Z,101473.06
2022-09-22T01:04:32.891Z,101469.28
2022-09-22T01:07:04.799Z,101471.69
2022-09-22T01:09:39.540Z,101473.34
2022-09-22T01:12:27.936Z,101467.16
2022-09-22T01:15:21.349Z,101466.00
2022-09-22T01:22:48.490Z,101465.72
2022-09-22T01:25:58.719Z,101450.03
2022-09-22T01:29:29.590Z,101455.00
2022-09-22T01:32:32.512Z,101448.38
2022-09-22T01:35:47.551Z,101452.38
2022-09-22T01:38:23.443Z,101456.28
2022-09-22T01:41:04.892Z,101442.78
2022-09-22T01:43:55.282Z,101444.28
2022-09-22T01:46:34.311Z,101441.19
2022-09-22T01:50:09.134Z,101448.41
2022-09-22T01:52:47.106Z,101438.31
2022-09-22T01:55:36.828Z,101441.38
2022-09-22T01:58:25.524Z,101431.75
2022-09-22T02:01:12.145Z,101434.22
2022-09-22T02:03:53.827Z,101436.31
2022-09-22T02:06:33.545Z,101423.25
2022-09-22T02:09:13.552Z,101425.03
2022-09-22T02:11:51.066Z,101421.59
2022-09-22T02:14:19.196Z,101428.94
2022-09-22T02:17:16.130Z,101422.22
2022-09-22T02:19:46.060Z,101434.72
2022-09-22T02:22:13.749Z,101422.34
2022-09-22T02:24:45.613Z,101424.63
2022-09-22T02:27:28.243Z,101431.53
2022-09-22T02:30:28.135Z,101422.59
2022-09-22T02:33:14.697Z,101424.44
2022-09-22T02:35:49.762Z,101413.28
2022-09-22T02:39:31.849Z,101419.25
2022-09-22T02:42:51.912Z,101416.81
2022-09-22T02:46:10.071Z,101413.88
2022-09-22T02:49:22.868Z,101393.03
2022-09-22T02:52:43.940Z,101414.94
2022-09-22T02:55:13.716Z,101408.66
2022-09-22T02:57:43.784Z,101408.94
2022-09-22T03:00:12.394Z,101410.63
2022-09-22T03:03:23.158Z,101398.56
2022-09-22T03:05:50.840Z,101407.63
2022-09-22T03:08:19.747Z,101401.09
2022-09-22T03:10:47.499Z,101399.69
2022-09-22T03:13:16.924Z,101406.28
2022-09-22T03:16:12.647Z,101406.13
2022-09-22T03:19:31.718Z,101401.03
2022-09-22T03:22:01.885Z,101401.56
2022-09-22T03:24:29.577Z,101391.81
2022-09-22T03:27:25.054Z,101390.00
2022-09-22T03:30:26.412Z,101397.09
2022-09-22T03:32:54.146Z,101396.63
2022-09-22T03:35:25.264Z,101396.31
2022-09-22T03:38:00.288Z,101397.00
2022-09-22T03:40:28.191Z,101385.75
2022-09-22T03:43:30.766Z,101399.59
2022-09-22T03:46:04.284Z,101383.97
2022-09-22T03:48:34.477Z,101389.06
2022-09-22T03:51:54.178Z,101381.50
2022-09-22T03:54:21.832Z,101387.38
2022-09-22T03:56:50.446Z,101394.97
2022-09-22T03:59:20.537Z,101378.38
2022-09-22T04:01:58.958Z,101386.19
2022-09-22T04:04:26.752Z,101395.00
2022-09-22T04:06:54.575Z,101388.56
2022-09-22T04:09:24.963Z,101374.28
2022-09-22T04:12:15.834Z,101389.72
2022-09-22T04:14:43.795Z,101384.28
2022-09-22T04:17:11.392Z,101375.16
2022-09-22T04:19:39.219Z,101390.44
2022-09-22T04:22:06.934Z,101378.56
2022-09-22T04:24:34.703Z,101384.44
2022-09-22T04:27:19.109Z,101379.09
2022-09-22T04:30:22.806Z,101376.00
2022-09-22T04:32:50.381Z,101375.19
2022-09-22T04:35:47.963Z,101390.81
2022-09-22T04:38:36.114Z,101386.25
2022-09-22T04:41:03.864Z,101382.34
2022-09-22T04:43:31.549Z,101383.06
2022-09-22T04:49:18.847Z,101389.06
2022-09-22T04:51:46.446Z,101394.44
2022-09-22T04:54:16.553Z,101400.41
2022-09-22T04:56:44.494Z,101402.44
2022-09-22T05:00:03.954Z,101387.47
2022-09-22T05:02:31.745Z,101394.25
2022-09-22T05:05:15.848Z,101399.00
2022-09-22T05:07:46.301Z,101396.75
2022-09-22T05:10:37.058Z,101389.63
2022-09-22T05:13:53.614Z,101399.75
2022-09-22T05:16:28.394Z,101391.25
2022-09-22T05:19:05.711Z,101396.09
2022-09-22T05:32:39.539Z,101390.31
2022-09-22T05:33:59.774Z,101396.31
2022-09-22T05:36:50.457Z,101402.47
2022-09-22T05:40:36.660Z,101404.66
2022-09-22T05:42:25.304Z,101410.16
2022-09-22T05:45:36.356Z,101406.78
2022-09-22T05:48:09.348Z,101398.69
2022-09-22T05:50:45.579Z,101396.47
2022-09-22T05:53:34.989Z,101405.25
2022-09-22T05:56:16.170Z,101405.19
2022-09-22T05:58:47.780Z,101396.03
2022-09-22T06:01:17.354Z,101398.19
2022-09-22T06:03:51.211Z,101397.50
2022-09-22T06:06:19.310Z,101402.50
2022-09-22T06:20:38.907Z,101398.75
2022-09-22T06:23:06.409Z,101403.25
2022-09-22T06:25:33.901Z,101396.94
2022-09-22T06:28:04.873Z,101401.44
2022-09-22T06:30:34.068Z,101407.94
2022-09-22T06:33:02.187Z,101411.22
2022-09-22T06:35:37.592Z,101419.94
2022-09-22T06:38:07.848Z,101410.38
2022-09-22T06:40:36.480Z,101414.16
2022-09-22T06:43:15.333Z,101416.31
2022-09-22T06:45:42.951Z,101420.75
2022-09-22T06:48:13.287Z,101419.47
2022-09-22T06:50:41.194Z,101417.31
2022-09-22T06:53:11.793Z,101418.34
2022-09-22T06:55:40.531Z,101420.41
2022-09-22T06:58:09.516Z,101422.81
2022-09-22T07:00:37.382Z,101426.09
2022-09-22T07:03:20.626Z,101424.47
2022-09-22T07:06:01.120Z,101427.56
2022-09-22T07:08:30.926Z,101426.19
2022-09-22T07:11:04.345Z,101429.00
2022-09-22T07:13:32.555Z,101418.84
2022-09-22T07:16:04.727Z,101425.44
2022-09-22T07:18:32.213Z,101428.28
2022-09-22T07:21:05.488Z,101423.00
2022-09-22T07:23:35.704Z,101418.25
2022-09-22T07:26:05.863Z,101425.50
2022-09-22T07:28:35.394Z,101422.66
2022-09-22T07:31:07.716Z,101426.28
2022-09-22T07:33:36.466Z,101429.50
2022-09-22T07:36:14.325Z,101428.00
2022-09-22T07:38:43.998Z,101435.78
2022-09-22T07:41:19.231Z,101432.72
2022-09-22T07:43:48.847Z,101427.97
2022-09-22T07:46:16.302Z,101434.88
2022-09-22T07:48:49.874Z,101434.03
2022-09-22T07:51:23.041Z,101439.69
2022-09-22T07:54:08.564Z,101435.31
2022-09-22T07:56:40.219Z,101439.44
2022-09-22T07:59:10.904Z,101443.16
2022-09-22T08:01:44.475Z,101439.72
2022-09-22T08:04:15.732Z,101449.06
2022-09-22T08:06:44.654Z,101442.38
2022-09-22T08:09:13.615Z,101451.53
2022-09-22T08:11:48.545Z,101447.94
2022-09-22T08:14:17.498Z,101454.38
2022-09-22T08:16:46.035Z,101455.31
2022-09-22T08:19:15.848Z,101459.13
2022-09-22T08:21:48.908Z,101458.09
2022-09-22T08:24:22.724Z,101448.56
2022-09-22T08:26:52.643Z,101451.78
2022-09-22T08:29:21.062Z,101445.53
2022-09-22T08:31:49.545Z,101455.91
2022-09-22T08:34:18.117Z,101454.31
2022-09-22T08:36:48.237Z,101457.66
2022-09-22T08:39:17.389Z,101452.53
2022-09-22T08:42:22.095Z,101456.47
2022-09-22T08:45:00.275Z,101447.84
2022-09-22T08:47:57.348Z,101455.28
2022-09-22T08:51:19.379Z,101456.16
2022-09-22T08:53:50.457Z,101453.47
2022-09-22T08:56:36.793Z,101455.31
2022-09-22T08:59:12.864Z,101458.94
2022-09-22T09:01:55.194Z,101460.47
2022-09-22T09:07:22.884Z,101454.75
2022-09-22T09:10:03.385Z,101452.84
2022-09-22T09:12:48.836Z,101446.63
2022-09-22T09:15:53.893Z,101452.41
2022-09-22T09:18:29.025Z,101453.88
2022-09-22T09:20:59.490Z,101454.53
2022-09-22T09:26:27.589Z,101460.50
2022-09-22T09:29:03.715Z,101464.28
2022-09-22T09:31:39.752Z,101460.13
2022-09-22T09:34:18.575Z,101454.00
2022-09-22T09:36:52.843Z,101451.66
2022-09-22T09:39:27.876Z,101456.34
2022-09-22T09:41:57.287Z,101457.31
2022-09-22T09:44:32.708Z,101454.16
2022-09-22T09:47:09.191Z,101453.97
2022-09-22T09:49:36.613Z,101457.09
2022-09-22T09:52:11.237Z,101458.34
2022-09-22T09:54:39.110Z,101449.19
2022-09-22T09:57:10.717Z,101446.97
2022-09-22T09:59:58.980Z,101449.69
2022-09-22T10:02:35.933Z,101439.72
2022-09-22T10:05:10.362Z,101438.56
2022-09-22T10:07:44.540Z,101430.09
2022-09-22T10:10:30.114Z,101424.81
2022-09-22T10:13:43.304Z,101419.03
2022-09-22T10:16:24.993Z,101419.63
2022-09-22T10:19:23.987Z,101414.00
2022-09-22T10:21:51.499Z,101415.72
2022-09-22T10:24:31.660Z,101406.63
2022-09-22T10:27:02.415Z,101414.09
2022-09-22T10:29:32.819Z,101421.09
2022-09-22T10:32:02.832Z,101408.63
2022-09-22T10:37:15.455Z,101401.81
2022-09-22T10:39:53.093Z,101403.28
2022-09-22T10:42:37.759Z,101408.75
2022-09-22T10:45:07.240Z,101405.25
2022-09-22T10:47:57.619Z,101402.78
2022-09-22T10:50:49.343Z,101402.03
2022-09-22T10:53:43.788Z,101407.25
2022-09-22T10:56:20.003Z,101396.16
2022-09-22T10:59:08.335Z,101397.19
2022-09-22T11:02:02.643Z,101407.00
2022-09-22T11:04:50.584Z,101392.78
2022-09-22T11:07:42.865Z,101395.47
2022-09-22T11:11:11.199Z,101393.81
2022-09-22T11:13:49.067Z,101396.81
2022-09-22T11:16:35.013Z,101393.16
2022-09-22T11:19:20.924Z,101383.94
2022-09-22T11:21:54.172Z,101379.66
2022-09-22T11:24:40.299Z,101379.59
2022-09-22T11:27:15.973Z,101372.59
2022-09-22T11:30:10.681Z,101370.44
2022-09-22T11:32:54.817Z,101369.16
2022-09-22T11:35:34.460Z,101372.16
2022-09-22T11:38:26.582Z,101360.06
2022-09-22T11:41:04.524Z,101364.81
2022-09-22T11:43:57.039Z,101364.78
2022-09-22T11:46:57.748Z,101356.91
2022-09-22T11:49:46.393Z,101355.81
2022-09-22T11:52:28.821Z,101352.38
2022-09-22T11:55:23.655Z,101345.56
2022-09-22T11:57:57.013Z,101345.34
2022-09-22T12:00:24.942Z,101355.63
2022-09-22T12:03:01.914Z,101348.03
2022-09-22T12:05:47.976Z,101324.38
2022-09-22T12:08:21.090Z,101333.91
2022-09-22T12:10:52.013Z,101326.59
2022-09-22T12:13:28.195Z,101325.34
2022-09-22T12:16:07.205Z,101312.81
2022-09-22T12:18:45.400Z,101324.81
2022-09-22T12:21:31.028Z,101314.03
2022-09-22T12:24:09.353Z,101304.75
2022-09-22T12:26:41.096Z,101300.78
2022-09-22T12:29:11.419Z,101305.19
2022-09-22T12:31:40.430Z,101305.97
2022-09-22T12:34:20.086Z,101299.50
2022-09-22T12:36:50.657Z,101291.69
2022-09-22T12:39:24.185Z,101294.22
2022-09-22T12:41:57.989Z,101291.97
2022-09-22T12:44:30.564Z,101291.75
2022-09-22T12:47:07.986Z,101278.75
2022-09-22T12:49:51.483Z,101279.78
2022-09-22T12:52:57.395Z,101281.69
2022-09-22T12:55:41.229Z,101274.75
2022-09-22T12:58:20.598Z,101279.09
2022-09-22T13:00:52.756Z,101278.47
2022-09-22T13:03:28.300Z,101272.91
2022-09-22T13:06:22.700Z,101271.44
2022-09-22T13:08:53.027Z,101261.88
2022-09-22T13:12:01.253Z,101278.47
2022-09-22T13:15:19.858Z,101273.09
2022-09-22T13:17:50.090Z,101266.66
2022-09-22T13:20:30.381Z,101264.41
2022-09-22T13:23:12.135Z,101254.16
2022-09-22T13:25:41.089Z,101253.66
2022-09-22T13:28:08.370Z,101258.94
2022-09-22T13:30:37.824Z,101255.13
2022-09-22T13:33:05.738Z,101247.47
2022-09-22T13:35:39.051Z,101250.88
2022-09-22T13:38:10.815Z,101244.78
2022-09-22T13:40:38.213Z,101244.78
2022-09-22T13:43:10.493Z,101239.56
2022-09-22T13:45:39.956Z,101236.72
2022-09-22T13:48:12.145Z,101237.94
2022-09-22T13:50:53.947Z,101232.53
2022-09-22T13:53:22.583Z,101229.03
2022-09-22T13:55:53.991Z,101228.91
2022-09-22T13:58:35.379Z,101233.41
2022-09-22T14:01:19.875Z,101230.94
2022-09-22T14:03:48.676Z,101238.13
2022-09-22T14:06:19.454Z,101236.59
2022-09-22T14:08:49.244Z,101221.75
2022-09-22T14:11:21.583Z,101229.97
2022-09-22T14:13:56.820Z,101220.13
2022-09-22T14:16:30.039Z,101223.34
2022-09-22T14:19:04.371Z,101226.47
2022-09-22T14:21:40.245Z,101212.28
2022-09-22T14:24:08.014Z,101210.03
2022-09-22T14:26:38.904Z,101212.16
2022-09-22T14:29:31.905Z,101206.19
2022-09-22T14:32:22.774Z,101205.78
2022-09-22T14:34:56.497Z,101198.44
2022-09-22T14:37:32.309Z,101202.09
2022-09-22T14:40:03.618Z,101201.50
2022-09-22T14:42:33.258Z,101198.38
2022-09-22T14:45:09.597Z,101202.00
2022-09-22T14:47:41.684Z,101198.13
2022-09-22T14:50:09.282Z,101204.09
2022-09-22T14:52:47.036Z,101193.06
2022-09-22T15:02:09.616Z,101177.19
2022-09-22T15:04:44.736Z,101184.91
2022-09-22T15:07:25.892Z,101183.00
2022-09-22T15:09:57.672Z,101176.03
2022-09-22T15:12:37.838Z,101181.63
2022-09-22T15:15:16.535Z,101169.78
2022-09-22T15:18:16.140Z,101180.47
2022-09-22T15:20:53.607Z,101173.28
2022-09-22T15:23:41.000Z,101174.44
2022-09-22T15:26:42.002Z,101180.97
2022-09-22T15:29:11.948Z,101179.47
2022-09-22T15:31:39.832Z,101183.09
2022-09-22T15:34:10.461Z,101178.66
2022-09-22T15:36:44.191Z,101180.44
2022-09-22T15:39:22.952Z,101174.06
2022-09-22T15:41:52.294Z,101185.28
2022-09-22T15:44:22.849Z,101182.25
2022-09-22T15:46:54.782Z,101178.59
2022-09-22T15:49:26.589Z,101177.94
2022-09-22T15:51:57.656Z,101185.59
2022-09-22T15:54:31.120Z,101182.25
2022-09-22T15:57:00.098Z,101179.81
2022-09-22T15:59:32.411Z,101180.19
2022-09-22T16:02:01.335Z,101187.91
2022-09-22T16:04:32.455Z,101180.03
2022-09-22T16:07:04.078Z,101178.63
2022-09-22T16:09:32.296Z,101175.59
2022-09-22T16:12:01.084Z,101174.75
2022-09-22T16:14:28.908Z,101177.75
2022-09-22T16:16:56.720Z,101180.72
2022-09-22T16:19:26.064Z,101167.94
2022-09-22T16:21:57.225Z,101175.28
2022-09-22T16:24:28.066Z,101171.75
2022-09-22T16:26:56.293Z,101181.19
2022-09-22T16:29:25.165Z,101183.13
2022-09-22T16:31:52.725Z,101174.81
2022-09-22T16:34:21.298Z,101175.84
2022-09-22T16:36:48.923Z,101183.94
2022-09-22T16:39:17.321Z,101183.16
2022-09-22T16:41:45.944Z,101180.44
2022-09-22T16:44:13.701Z,101185.28
2022-09-22T16:46:41.248Z,101187.19
2022-09-22T16:49:12.135Z,101192.25
2022-09-22T16:51:42.302Z,101185.41
2022-09-22T16:54:14.969Z,101184.41
2022-09-22T16:56:45.471Z,101200.44
2022-09-22T16:59:16.545Z,101190.47
2022-09-22T17:01:44.369Z,101185.03
2022-09-22T17:04:15.839Z,101181.28
2022-09-22T17:06:43.804Z,101197.69
2022-09-22T17:09:13.114Z,101193.94
2022-09-22T17:11:43.671Z,101192.72
2022-09-22T17:14:14.108Z,101193.53
2022-09-22T17:16:45.848Z,101200.16
2022-09-22T17:19:20.105Z,101199.50
2022-09-22T17:21:49.524Z,101199.72
2022-09-22T17:24:17.407Z,101205.59
2022-09-22T17:26:50.712Z,101207.53
2022-09-22T17:29:26.637Z,101214.06
2022-09-22T17:32:00.347Z,101212.31
2022-09-22T17:34:29.016Z,101213.94
2022-09-22T17:36:57.499Z,101225.81
2022-09-22T17:39:29.126Z,101229.56
2022-09-22T17:41:56.713Z,101226.78
2022-09-22T17:44:28.556Z,101227.50
2022-09-22T17:47:18.463Z,101226.44
2022-09-22T17:50:04.880Z,101228.34
2022-09-22T17:52:32.450Z,101234.88
2022-09-22T17:55:07.092Z,101237.78
2022-09-22T17:57:45.505Z,101234.56
2022-09-22T18:00:21.276Z,101243.53
2022-09-22T18:02:51.127Z,101245.81
2022-09-22T18:05:25.543Z,101254.41
2022-09-22T18:07:57.917Z,101250.09
2022-09-22T18:10:32.254Z,101254.47
2022-09-22T18:13:01.371Z,101263.47
2022-09-22T18:15:29.398Z,101270.44
2022-09-22T18:17:58.332Z,101272.63
2022-09-22T18:20:27.516Z,101273.56
2022-09-22T18:22:56.122Z,101269.28
2022-09-22T18:25:25.808Z,101277.53
2022-09-22T18:27:56.444Z,101281.31
2022-09-22T18:30:27.802Z,101293.13
2022-09-22T18:32:56.730Z,101286.66
2022-09-22T18:35:24.902Z,101293.13
2022-09-22T18:37:52.532Z,101297.06
2022-09-22T18:40:20.097Z,101294.88
2022-09-22T18:42:47.646Z,101305.63
2022-09-22T18:45:15.284Z,101306.69
2022-09-22T18:47:43.570Z,101315.69
2022-09-22T18:50:11.970Z,101310.69
2022-09-22T18:52:43.196Z,101310.88
2022-09-22T18:55:12.009Z,101315.34
2022-09-22T18:57:39.605Z,101324.53
2022-09-22T19:00:08.042Z,101339.56
2022-09-22T19:02:35.643Z,101336.84
2022-09-22T19:05:05.830Z,101334.06
2022-09-22T19:07:42.886Z,101341.72
2022-09-22T19:10:26.352Z,101350.38
2022-09-22T19:12:56.010Z,101350.63
2022-09-22T19:15:26.826Z,101346.09
2022-09-22T19:17:54.353Z,101347.72
2022-09-22T19:20:24.054Z,101349.09
2022-09-22T19:22:52.937Z,101351.06
2022-09-22T19:25:22.110Z,101349.09
2022-09-22T19:27:53.928Z,101356.66
2022-09-22T19:30:24.914Z,101366.50
2022-09-22T19:32:57.663Z,101364.09
2022-09-22T19:35:26.340Z,101355.09
2022-09-22T19:37:54.117Z,101357.50
2022-09-22T19:40:24.448Z,101359.28
2022-09-22T19:42:54.492Z,101360.97
2022-09-22T19:45:24.011Z,101364.59
2022-09-22T19:47:56.097Z,101366.88
2022-09-22T19:50:24.438Z,101364.13
2022-09-22T19:52:52.570Z,101363.53
2022-09-22T19:55:21.348Z,101369.25
2022-09-22T19:57:52.917Z,101363.25
2022-09-22T20:00:26.178Z,101370.97
2022-09-22T20:02:58.587Z,101370.75
2022-09-22T20:05:38.455Z,101375.13
2022-09-22T20:08:08.432Z,101381.47
2022-09-22T20:10:37.196Z,101377.81
2022-09-22T20:13:46.278Z,101381.72
2022-09-22T20:16:14.210Z,101380.13
2022-09-22T20:18:42.107Z,101385.22
2022-09-22T20:21:23.380Z,101391.50
2022-09-22T20:23:56.307Z,101396.75
2022-09-22T20:26:24.559Z,101402.78
2022-09-22T20:28:52.777Z,101404.84
2022-09-22T20:31:20.489Z,101405.41
2022-09-22T20:33:48.369Z,101408.16
2022-09-22T20:36:16.574Z,101412.50
2022-09-22T20:38:51.523Z,101418.75
2022-09-22T20:41:22.311Z,101410.47
2022-09-22T20:43:51.219Z,101412.59
2022-09-22T20:46:21.697Z,101412.19
2022-09-22T20:48:49.609Z,101417.88
2022-09-22T20:51:20.042Z,101422.28
2022-09-22T20:53:47.929Z,101429.09
2022-09-22T20:56:20.993Z,101424.72
2022-09-22T20:58:48.686Z,101424.81
2022-09-22T21:01:17.799Z,101431.69
2022-09-22T21:03:45.517Z,101430.97
2022-09-22T21:06:13.523Z,101428.97
2022-09-22T21:09:02.109Z,101433.00
2022-09-22T21:11:30.539Z,101433.72
2022-09-22T21:14:02.054Z,101439.59
2022-09-22T21:16:34.630Z,101447.94
2022-09-22T21:19:02.638Z,101445.09
2022-09-22T21:21:32.634Z,101434.06
2022-09-22T21:24:02.032Z,101431.41
2022-09-22T21:26:31.019Z,101439.44
2022-09-22T21:28:59.613Z,101445.44
2022-09-22T21:31:28.004Z,101441.19
2022-09-22T21:33:55.959Z,101448.31
2022-09-22T21:36:24.422Z,101443.06
2022-09-22T21:38:57.330Z,101442.06
2022-09-22T21:41:27.413Z,101443.84
2022-09-22T21:43:55.651Z,101438.69
2022-09-22T21:46:26.264Z,101444.03
2022-09-22T21:48:59.314Z,101433.47
2022-09-22T21:51:29.395Z,101442.94
2022-09-22T21:53:56.966Z,101442.69
2022-09-22T21:56:25.837Z,101448.69
2022-09-22T21:58:55.214Z,101450.53
2022-09-22T22:01:23.989Z,101448.22
2022-09-22T22:03:53.500Z,101452.50
2022-09-22T22:06:23.314Z,101451.00
2022-09-22T22:09:00.806Z,101450.88
2022-09-22T22:11:49.438Z,101454.41
2022-09-22T22:14:19.513Z,101457.00
2022-09-22T22:16:50.053Z,101451.50
2022-09-22T22:19:20.440Z,101448.00
2022-09-22T22:21:50.849Z,101454.00
2022-09-22T22:24:40.863Z,101446.03
2022-09-22T22:27:10.506Z,101448.41
2022-09-22T22:29:41.281Z,101446.38
2022-09-22T22:32:10.644Z,101446.38
2022-09-22T22:34:38.281Z,101445.94
2022-09-22T22:37:09.757Z,101447.81
2022-09-22T22:39:39.981Z,101445.97
2022-09-22T22:42:07.589Z,101446.72
2022-09-22T22:44:35.344Z,101450.47
2022-09-22T22:47:02.749Z,101451.44
2022-09-22T22:49:33.245Z,101442.47
2022-09-22T22:52:03.303Z,101451.31
2022-09-22T22:54:33.933Z,101447.34
2022-09-22T22:57:01.381Z,101436.81
2022-09-22T22:59:30.000Z,101447.97
2022-09-22T23:01:57.506Z,101447.88
2022-09-22T23:04:25.238Z,101445.34
2022-09-22T23:06:52.648Z,101446.09
2022-09-22T23:09:21.424Z,101438.31
2022-09-22T23:11:49.156Z,101442.84
2022-09-22T23:14:18.956Z,101434.22
2022-09-22T23:16:49.416Z,101443.78
2022-09-22T23:19:18.335Z,101433.34
2022-09-22T23:21:46.799Z,101435.63
2022-09-22T23:24:16.780Z,101440.44
2022-09-22T23:26:46.005Z,101432.72
2022-09-22T23:29:13.888Z,101429.31
2022-09-22T23:31:41.396Z,101429.59
2022-09-22T23:34:08.916Z,101426.09
2022-09-22T23:36:36.378Z,101430.53
2022-09-22T23:39:04.614Z,101434.22
2022-09-22T23:41:34.541Z,101433.34
2022-09-22T23:44:03.167Z,101441.31
2022-09-22T23:46:31.837Z,101430.75
2022-09-22T23:49:00.254Z,101427.22
2022-09-22T23:51:28.566Z,101434.31
2022-09-22T23:53:56.490Z,101421.88
2022-09-22T23:56:24.716Z,101419.31
2022-09-22T23:58:52.699Z,101420.97
